Reese, Georgia
Current Conditions -  °F | °C
As of 9:15 AM on Wednesday 28 Jan 2015 (Local Time) from KHQU Reporting Station
Clear Clear  
Wind Chill: 37°   Ceiling: Unl
Heat Index: 37°   Visibility: 10mi
Dew Point: 32°   Wind: 3mph
Humidity: 83%   Direction: 350°N
Pressure: 30.3"   Gusts: NA
Location:  33.3862°N, 82.5904°W
Report Text: KHQU 281415Z AUTO 35003KT 10SM CLR 03/00 A3030 RMK AO1 T00261001
Loading
Personal Weather Stations






























Interactive Weather Map New forecast layout! Learn more

10-Day Weather Forecast

Advertisements
Track Severe Weather on mobile